Time;durP1;ratioP1;P1;durP2;ratioP2;P2;SDS_P1;SDS_P2;PMS_P1;PMS_P2;Temp;Humidity;BMP_temperature;BMP_pressure;BME280_temperature;BME280_humidity;BME280_pressure;Samples;Min_cycle;Max_cycle;Signal;HPM_P1;HPM_P2
2023/08/28 00:00:34;;;;;;;3.38;2.40;;;;;;;11.89;100.00;98081.03;4172860;28;20492;-72
2023/08/28 00:02:34;;;;;;;3.63;2.25;;;;;;;11.86;100.00;98076.31;4171775;28;20262;-72
2023/08/28 00:04:34;;;;;;;3.78;2.17;;;;;;;11.78;100.00;98072.72;4171889;28;20110;-72
2023/08/28 00:06:35;;;;;;;2.80;2.17;;;;;;;11.78;100.00;98067.16;4172692;28;20045;-72
2023/08/28 00:08:35;;;;;;;4.80;2.60;;;;;;;11.73;100.00;98068.34;4172477;28;20045;-72
2023/08/28 00:10:35;;;;;;;2.80;2.20;;;;;;;11.69;100.00;98064.00;4172451;28;20041;-72
2023/08/28 00:12:40;;;;;;;10.80;3.22;;;;;;;11.66;100.00;98067.53;4171864;28;20048;-72
2023/08/28 00:14:40;;;;;;;4.13;2.53;;;;;;;11.64;100.00;98070.72;4172671;28;20429;-72
2023/08/28 00:16:41;;;;;;;3.70;2.70;;;;;;;11.67;100.00;98071.91;4172034;28;20106;-72
2023/08/28 00:18:42;;;;;;;4.25;2.35;;;;;;;11.64;100.00;98069.91;4171975;28;20063;-72
2023/08/28 00:20:43;;;;;;;3.03;2.63;;;;;;;11.60;100.00;98071.91;4171933;28;20680;-72
2023/08/28 00:22:43;;;;;;;3.35;2.17;;;;;;;11.58;100.00;98072.28;4171804;28;20063;-72
2023/08/28 00:24:43;;;;;;;4.97;2.92;;;;;;;11.64;100.00;98075.47;4172464;28;20436;-72
2023/08/28 00:26:44;;;;;;;6.55;2.33;;;;;;;11.68;100.00;98076.28;4172503;28;20216;-72
2023/08/28 00:28:44;;;;;;;2.40;2.10;;;;;;;11.74;100.00;98078.22;4172646;28;20092;-72
2023/08/28 00:30:45;;;;;;;4.43;2.42;;;;;;;11.69;100.00;98078.66;4172075;28;20045;-72
2023/08/28 00:32:45;;;;;;;4.18;2.70;;;;;;;11.63;100.00;98084.97;4171171;28;20045;-72
2023/08/28 00:34:45;;;;;;;4.13;2.60;;;;;;;11.52;100.00;98085.75;4172293;28;20104;-72
2023/08/28 00:36:46;;;;;;;3.20;2.58;;;;;;;11.48;100.00;98081.38;4172220;28;20504;-72
2023/08/28 00:38:46;;;;;;;4.32;2.88;;;;;;;11.47;100.00;98079.78;4172429;28;20068;-72
2023/08/28 00:40:46;;;;;;;4.57;2.90;;;;;;;11.41;100.00;98084.94;4172191;28;20405;-72
2023/08/28 00:42:47;;;;;;;3.13;2.20;;;;;;;11.43;100.00;98076.25;4171471;28;20436;-72
2023/08/28 00:44:47;;;;;;;3.80;2.60;;;;;;;11.42;100.00;98078.22;4172546;28;20266;-72
2023/08/28 00:46:47;;;;;;;3.70;2.70;;;;;;;11.43;100.00;98079.81;4172756;28;20136;-72
2023/08/28 00:48:48;;;;;;;3.35;2.75;;;;;;;11.39;100.00;98083.75;4172418;28;20140;-72
2023/08/28 00:50:50;;;;;;;4.95;3.00;;;;;;;11.36;100.00;98070.69;4171974;28;20394;-72
2023/08/28 00:52:50;;;;;;;2.85;2.50;;;;;;;11.32;100.00;98078.97;4170651;28;20135;-72
2023/08/28 00:54:51;;;;;;;3.13;2.53;;;;;;;11.30;100.00;98086.09;4172778;28;20079;-72
2023/08/28 00:56:53;;;;;;;3.92;2.97;;;;;;;11.34;100.00;98092.47;4174920;28;20044;-72
2023/08/28 00:58:54;;;;;;;7.60;2.40;;;;;;;11.31;100.00;98093.22;4175342;28;20481;-72
2023/08/28 01:00:54;;;;;;;3.50;2.65;;;;;;;11.26;100.00;98094.41;4175060;28;20060;-72
2023/08/28 01:02:55;;;;;;;3.58;2.58;;;;;;;11.18;100.00;98090.81;4174276;28;20055;-72
2023/08/28 01:04:55;;;;;;;4.53;2.70;;;;;;;11.13;100.00;98093.97;4174740;28;20061;-72
2023/08/28 01:06:58;;;;;;;3.00;2.42;;;;;;;11.11;100.00;98101.88;4174615;28;20049;-72
2023/08/28 01:09:24;;;;;;;3.28;2.75;;;;;;;11.06;100.00;98101.44;4175326;28;20309;-72
2023/08/28 01:11:37;;;;;;;2.97;2.58;;;;;;;11.02;100.00;98087.63;4167375;28;20106;-72
2023/08/28 01:14:03;;;;;;;3.90;2.53;;;;;;;11.04;100.00;98088.00;4174298;28;20072;-72
2023/08/28 01:16:05;;;;;;;5.15;3.20;;;;;;;11.06;100.00;98085.63;4174120;28;20059;-72
2023/08/28 01:18:07;;;;;;;3.13;2.45;;;;;;;11.04;100.00;98084.44;4175622;28;20425;-72
2023/08/28 01:20:15;;;;;;;4.15;2.70;;;;;;;11.03;100.00;98080.88;4174846;28;20037;-72
2023/08/28 01:22:42;;;;;;;3.60;2.42;;;;;;;10.98;100.00;98070.19;4175238;28;20033;-72
2023/08/28 01:24:48;;;;;;;4.75;3.22;;;;;;;10.95;100.00;98063.47;4174862;28;20049;-72
2023/08/28 01:26:49;;;;;;;4.47;2.50;;;;;;;10.91;100.00;98050.78;4174788;28;20574;-72
2023/08/28 01:28:49;;;;;;;3.33;2.60;;;;;;;10.94;100.00;98053.56;4174569;28;20033;-72
2023/08/28 01:30:51;;;;;;;5.80;2.50;;;;;;;11.00;100.00;98058.72;4174592;28;20405;-72
2023/08/28 01:32:51;;;;;;;4.32;2.65;;;;;;;10.95;100.00;98049.63;4174205;28;20060;-72
2023/08/28 01:34:52;;;;;;;8.98;3.03;;;;;;;10.94;100.00;98048.03;4174590;28;20048;-72
2023/08/28 01:37:01;;;;;;;4.70;2.67;;;;;;;10.91;100.00;98050.78;4174625;28;20049;-72
2023/08/28 01:39:07;;;;;;;5.32;3.15;;;;;;;10.86;100.00;98046.44;4174556;28;20098;-72
2023/08/28 01:41:09;;;;;;;2.97;2.40;;;;;;;10.87;100.00;98036.94;4174396;28;20346;-72
2023/08/28 01:43:13;;;;;;;2.83;2.47;;;;;;;10.86;100.00;98042.88;4173881;28;20049;-72
2023/08/28 01:45:15;;;;;;;3.55;2.75;;;;;;;10.86;100.00;98038.13;4174406;28;20037;-72
2023/08/28 01:47:15;;;;;;;4.45;2.38;;;;;;;10.81;100.00;98038.50;4174648;28;20083;-72
2023/08/28 01:49:16;;;;;;;4.57;2.90;;;;;;;10.78;100.00;98038.50;4172911;28;20048;-72
2023/08/28 01:51:16;;;;;;;3.33;2.78;;;;;;;10.79;100.00;98045.63;4174592;28;20052;-72
2023/08/28 01:53:16;;;;;;;3.75;2.55;;;;;;;10.76;100.00;98052.72;4174024;28;20041;-72
2023/08/28 01:55:50;;;;;;;4.80;3.05;;;;;;;10.76;100.00;98065.75;4174271;28;20443;-72
2023/08/28 01:57:50;;;;;;;5.63;2.85;;;;;;;10.82;100.00;98083.56;4170892;28;20068;-72
2023/08/28 01:59:51;;;;;;;4.75;2.72;;;;;;;10.89;100.00;98087.16;4173828;28;21167;-72
2023/08/28 02:01:51;;;;;;;10.60;2.97;;;;;;;10.96;100.00;98087.19;4174160;28;20551;-72
2023/08/28 02:03:52;;;;;;;6.10;2.63;;;;;;;11.02;100.00;98084.84;4173768;28;20060;-72
2023/08/28 02:05:52;;;;;;;7.05;2.75;;;;;;;11.01;100.00;98090.78;4173794;28;20517;-72
2023/08/28 02:07:52;;;;;;;3.53;2.60;;;;;;;10.94;100.00;98089.56;4173297;28;20048;-72
2023/08/28 02:09:53;;;;;;;5.22;2.78;;;;;;;10.94;100.00;98095.09;4174158;28;20073;-72
2023/08/28 02:11:53;;;;;;;5.35;2.55;;;;;;;10.89;100.00;98094.66;4173792;28;20049;-72
2023/08/28 02:13:54;;;;;;;4.18;2.30;;;;;;;10.85;100.00;98094.66;4173132;28;20134;-72
2023/08/28 02:15:54;;;;;;;3.45;2.88;;;;;;;10.84;100.00;98104.16;4174190;28;20103;-72
2023/08/28 02:17:54;;;;;;;5.80;3.20;;;;;;;10.80;100.00;98105.31;4161059;28;20136;-72
2023/08/28 02:19:55;;;;;;;5.20;2.60;;;;;;;10.75;100.00;98100.13;4173457;28;20626;-72
2023/08/28 02:21:55;;;;;;;3.65;2.47;;;;;;;10.81;100.00;98106.88;4174013;28;20108;-72
2023/08/28 02:23:55;;;;;;;3.42;2.60;;;;;;;10.82;100.00;98103.72;4173347;28;20494;-72
2023/08/28 02:25:56;;;;;;;4.95;2.38;;;;;;;10.77;100.00;98103.31;4173867;28;20052;-72
2023/08/28 02:27:57;;;;;;;4.05;2.53;;;;;;;10.66;100.00;98106.03;4172863;28;20565;-72
2023/08/28 02:29:58;;;;;;;4.65;2.70;;;;;;;10.65;100.00;98113.53;4173932;28;20129;-72
2023/08/28 02:31:58;;;;;;;5.57;3.00;;;;;;;10.62;100.00;98119.06;4173784;28;20475;-72
2023/08/28 02:33:59;;;;;;;3.83;2.70;;;;;;;10.52;100.00;98122.56;4172996;28;20454;-72
2023/08/28 02:36:01;;;;;;;4.80;2.90;;;;;;;10.41;100.00;98117.72;4174298;28;20295;-72
2023/08/28 02:38:01;;;;;;;5.70;2.87;;;;;;;10.34;100.00;98123.25;4173636;28;20412;-72
2023/08/28 02:40:03;;;;;;;4.88;3.10;;;;;;;10.37;100.00;98119.69;4173880;28;20068;-72
2023/08/28 02:42:04;;;;;;;3.80;2.83;;;;;;;10.38;100.00;98126.81;4173483;28;20496;-72
2023/08/28 02:44:04;;;;;;;6.20;2.65;;;;;;;10.43;100.00;98122.13;4172967;28;20109;-72
2023/08/28 02:46:05;;;;;;;5.55;2.58;;;;;;;10.48;100.00;98133.59;4174245;28;20024;-72
2023/08/28 02:48:06;;;;;;;7.18;3.15;;;;;;;10.56;100.00;98140.75;4171909;28;20090;-72
2023/08/28 02:50:06;;;;;;;3.78;2.63;;;;;;;10.64;100.00;98150.69;4173647;28;20044;-72
2023/08/28 02:52:07;;;;;;;5.07;2.40;;;;;;;10.67;100.00;98149.09;4173674;28;20080;-72
2023/08/28 02:54:08;;;;;;;5.00;2.53;;;;;;;10.66;100.00;98147.53;4172484;28;20029;-72
2023/08/28 02:56:23;;;;;;;6.70;2.60;;;;;;;10.62;100.00;98150.28;4173399;28;20079;-72
2023/08/28 02:58:24;;;;;;;3.38;2.33;;;;;;;10.57;100.00;98141.53;4173123;28;20107;-72
2023/08/28 03:00:24;;;;;;;3.42;2.60;;;;;;;10.54;100.00;98137.59;4173183;28;20439;-72
2023/08/28 03:02:24;;;;;;;4.75;2.40;;;;;;;10.51;100.00;98138.38;4172857;28;20842;-72
2023/08/28 03:04:25;;;;;;;4.28;2.58;;;;;;;10.47;100.00;98137.53;4172494;28;20134;-72
2023/08/28 03:06:25;;;;;;;3.65;2.30;;;;;;;10.47;100.00;98137.53;4172569;28;20388;-71
2023/08/28 03:08:26;;;;;;;6.88;2.42;;;;;;;10.41;100.00;98131.56;4172951;28;20041;-72
2023/08/28 03:10:26;;;;;;;4.03;2.80;;;;;;;10.36;100.00;98136.69;4173528;28;20392;-72
2023/08/28 03:12:26;;;;;;;4.60;2.95;;;;;;;10.30;100.00;98132.69;4172206;28;20037;-72
2023/08/28 03:14:27;;;;;;;4.88;2.70;;;;;;;10.25;100.00;98127.50;4172774;28;20048;-72
2023/08/28 03:16:27;;;;;;;7.78;3.50;;;;;;;10.18;100.00;98119.94;4173674;28;20127;-72
2023/08/28 03:18:27;;;;;;;5.05;3.05;;;;;;;10.13;100.00;98112.78;4172930;28;20114;-72
2023/08/28 03:20:28;;;;;;;4.30;3.20;;;;;;;10.09;100.00;98095.41;4173161;28;20045;-72
2023/08/28 03:22:28;;;;;;;3.40;2.65;;;;;;;10.08;100.00;98102.06;4172396;28;20151;-72
2023/08/28 03:24:28;;;;;;;5.10;3.13;;;;;;;10.05;100.00;98100.09;4172523;28;20068;-72
2023/08/28 03:26:29;;;;;;;4.22;3.40;;;;;;;10.07;100.00;98099.69;4172295;28;20049;-72
2023/08/28 03:28:30;;;;;;;3.38;2.92;;;;;;;10.08;100.00;98093.78;4172970;28;20049;-72
2023/08/28 03:30:30;;;;;;;3.80;3.03;;;;;;;10.18;100.00;98094.25;4173168;28;20485;-72
2023/08/28 03:32:30;;;;;;;7.95;3.08;;;;;;;10.20;100.00;98087.16;4172460;28;20585;-72
2023/08/28 03:34:30;;;;;;;3.50;3.08;;;;;;;10.22;100.00;98082.06;4172690;28;20447;-72
2023/08/28 03:36:31;;;;;;;6.78;3.30;;;;;;;10.14;100.00;98067.38;4172739;28;20401;-71
2023/08/28 03:38:31;;;;;;;5.03;2.60;;;;;;;10.05;100.00;98075.22;4172296;28;20429;-72
2023/08/28 03:40:34;;;;;;;3.75;3.13;;;;;;;9.99;100.00;98059.38;4171501;28;20056;-72
2023/08/28 03:42:34;;;;;;;4.30;3.15;;;;;;;10.02;100.00;98069.66;4172241;28;20585;-72
2023/08/28 03:44:34;;;;;;;3.58;2.92;;;;;;;9.99;100.00;98057.41;4172492;28;20136;-72
2023/08/28 03:46:35;;;;;;;4.18;3.45;;;;;;;9.97;100.00;98061.72;4172313;28;20084;-72
2023/08/28 03:48:35;;;;;;;5.40;3.33;;;;;;;9.92;100.00;98062.88;4172507;28;20131;-72
2023/08/28 03:50:35;;;;;;;7.28;3.53;;;;;;;9.93;100.00;98067.25;4172840;28;20077;-71
2023/08/28 03:52:36;;;;;;;5.78;3.53;;;;;;;9.88;100.00;98059.31;4172126;28;20045;-72
2023/08/28 03:54:36;;;;;;;5.95;3.25;;;;;;;9.83;100.00;98071.50;4172307;28;20041;-71
2023/08/28 03:56:36;;;;;;;5.20;3.40;;;;;;;9.77;100.00;98064.75;4172580;28;20088;-72
2023/08/28 03:58:37;;;;;;;5.45;2.80;;;;;;;9.76;100.00;98054.06;4172249;28;20080;-72
2023/08/28 04:00:39;;;;;;;4.75;3.38;;;;;;;9.71;100.00;98046.16;4172607;28;20069;-72
2023/08/28 04:02:41;;;;;;;4.28;3.45;;;;;;;9.74;100.00;98045.38;4171953;28;20049;-72
2023/08/28 04:04:41;;;;;;;5.00;3.23;;;;;;;9.81;100.00;98045.44;4172722;28;20055;-72
2023/08/28 04:06:42;;;;;;;5.40;3.63;;;;;;;9.93;100.00;98047.06;4172304;28;20057;-71
2023/08/28 04:08:42;;;;;;;6.35;4.07;;;;;;;9.95;100.00;98044.75;4172362;28;20045;-72
2023/08/28 04:10:43;;;;;;;5.65;3.55;;;;;;;10.00;100.00;98055.41;4172462;28;20144;-72
2023/08/28 04:12:43;;;;;;;5.75;3.75;;;;;;;10.05;100.00;98063.38;4171408;28;20142;-72
2023/08/28 04:14:44;;;;;;;7.13;3.63;;;;;;;10.09;100.00;98072.47;4172250;28;20059;-72
2023/08/28 04:16:44;;;;;;;4.53;3.25;;;;;;;10.05;100.00;98077.19;4172568;28;20228;-72
2023/08/28 04:18:44;;;;;;;5.78;3.63;;;;;;;9.95;100.00;98072.38;4172587;28;20072;-71
2023/08/28 04:20:45;;;;;;;7.40;3.60;;;;;;;9.85;100.00;98079.41;4172246;28;20060;-71
2023/08/28 04:22:45;;;;;;;6.22;3.42;;;;;;;9.71;100.00;98077.31;4171560;28;20033;-72
2023/08/28 04:24:46;;;;;;;7.18;3.90;;;;;;;9.64;100.00;98073.69;4172496;28;20131;-72
2023/08/28 04:26:46;;;;;;;4.85;3.13;;;;;;;9.62;100.00;98063.03;4171943;28;20080;-72
2023/08/28 04:28:47;;;;;;;5.13;3.35;;;;;;;9.57;100.00;98064.16;4172545;28;20049;-71
2023/08/28 04:30:47;;;;;;;4.68;3.45;;;;;;;9.53;100.00;98057.03;4172283;28;20097;-71
2023/08/28 04:32:48;;;;;;;8.95;3.45;;;;;;;9.61;100.00;98060.66;4175010;28;20045;-72
2023/08/28 04:34:48;;;;;;;4.78;3.50;;;;;;;9.56;100.00;98056.28;4175829;28;20060;-71
2023/08/28 04:36:48;;;;;;;5.20;3.50;;;;;;;9.52;100.00;98047.19;4175293;28;20055;-72
2023/08/28 04:38:49;;;;;;;5.97;3.35;;;;;;;9.50;100.00;98044.78;4175320;28;20605;-72
2023/08/28 04:40:49;;;;;;;4.95;3.58;;;;;;;9.49;100.00;98032.16;4175570;28;20528;-71
2023/08/28 04:42:49;;;;;;;13.13;4.40;;;;;;;9.49;100.00;98037.66;4175062;28;20132;-72
2023/08/28 04:44:50;;;;;;;8.98;4.68;;;;;;;9.53;100.00;98044.03;4174069;28;20405;-71
2023/08/28 04:46:50;;;;;;;7.20;4.20;;;;;;;9.56;100.00;98037.72;4174883;28;20561;-71
2023/08/28 04:48:51;;;;;;;6.03;4.05;;;;;;;9.62;100.00;98038.19;4175413;28;20372;-71
2023/08/28 04:50:51;;;;;;;9.95;4.35;;;;;;;9.66;100.00;98044.50;4175903;28;20041;-72
2023/08/28 04:52:51;;;;;;;5.18;3.78;;;;;;;9.75;100.00;98056.03;4174477;28;20388;-71
2023/08/28 04:54:52;;;;;;;6.20;4.13;;;;;;;9.83;100.00;98063.19;4175030;28;20124;-71
2023/08/28 04:56:52;;;;;;;4.82;4.00;;;;;;;9.88;100.00;98069.56;4175490;28;20092;-71
2023/08/28 04:58:52;;;;;;;5.35;4.25;;;;;;;9.82;100.00;98072.66;4175114;28;20041;-72
2023/08/28 05:00:53;;;;;;;6.05;3.83;;;;;;;9.80;100.00;98080.56;4175033;28;20617;-71
2023/08/28 05:02:53;;;;;;;6.80;3.33;;;;;;;9.74;100.00;98082.06;4174865;28;20537;-71
2023/08/28 05:04:53;;;;;;;6.90;3.40;;;;;;;9.73;100.00;98085.22;4174899;28;20136;-71
2023/08/28 05:06:54;;;;;;;8.52;3.72;;;;;;;9.69;100.00;98087.19;4175114;28;20119;-72
2023/08/28 05:08:54;;;;;;;5.80;4.00;;;;;;;9.68;100.00;98086.38;4174649;28;20053;-71
2023/08/28 05:10:55;;;;;;;6.55;3.70;;;;;;;9.75;100.00;98093.91;4175238;28;20055;-71
2023/08/28 05:12:55;;;;;;;7.75;3.80;;;;;;;9.83;100.00;98085.31;4174184;28;20044;-71
2023/08/28 05:14:55;;;;;;;5.40;4.18;;;;;;;9.87;100.00;98090.88;4174228;28;20586;-71
2023/08/28 05:16:56;;;;;;;5.63;3.65;;;;;;;9.90;100.00;98084.56;4174951;28;20056;-71
2023/08/28 05:18:56;;;;;;;5.57;3.90;;;;;;;9.95;100.00;98081.47;4174813;28;20048;-72
2023/08/28 05:20:56;;;;;;;8.20;4.63;;;;;;;9.95;100.00;98075.94;4174772;28;20098;-72
2023/08/28 05:22:57;;;;;;;5.45;4.20;;;;;;;9.95;100.00;98092.50;4174605;28;20249;-71
2023/08/28 05:24:57;;;;;;;5.38;4.35;;;;;;;10.02;100.00;98078.75;4174503;28;20049;-71
2023/08/28 05:26:57;;;;;;;4.43;3.53;;;;;;;10.08;100.00;98074.44;4174734;28;20045;-71
2023/08/28 05:28:58;;;;;;;5.22;3.95;;;;;;;10.18;100.00;98085.94;4174810;28;20049;-71
2023/08/28 05:30:58;;;;;;;5.90;4.35;;;;;;;10.28;100.00;98088.03;4174828;28;20124;-71
2023/08/28 05:32:58;;;;;;;7.60;3.85;;;;;;;10.29;100.00;98087.66;4173990;28;20127;-71
2023/08/28 05:34:59;;;;;;;6.15;3.75;;;;;;;10.29;100.00;98092.38;4174478;28;20056;-71
2023/08/28 05:36:59;;;;;;;5.25;4.38;;;;;;;10.26;100.00;98088.44;4174132;28;20247;-71
2023/08/28 05:39:00;;;;;;;8.75;4.70;;;;;;;10.25;100.00;98091.56;4159388;28;20440;-71
2023/08/28 05:41:00;;;;;;;6.05;4.07;;;;;;;10.29;100.00;98095.16;4172688;28;20056;-71
2023/08/28 05:43:00;;;;;;;13.45;5.28;;;;;;;10.37;100.00;98094.03;4172106;28;20129;-71
2023/08/28 05:45:01;;;;;;;5.20;4.40;;;;;;;10.40;100.00;98096.78;4175071;28;20079;-71
2023/08/28 05:47:01;;;;;;;9.10;4.45;;;;;;;10.41;100.00;98098.38;4173926;28;20053;-71
2023/08/28 05:49:02;;;;;;;5.68;4.35;;;;;;;10.43;100.00;98100.78;4174513;28;20088;-71
2023/08/28 05:51:03;;;;;;;6.30;4.22;;;;;;;10.47;100.00;98109.88;4173984;28;20053;-71
2023/08/28 05:53:03;;;;;;;5.07;4.10;;;;;;;10.49;100.00;98113.03;4172883;28;20529;-71
2023/08/28 05:55:07;;;;;;;6.53;4.05;;;;;;;10.55;100.00;98121.78;4174596;28;20055;-71
2023/08/28 05:57:07;;;;;;;4.40;3.90;;;;;;;10.59;100.00;98115.09;4174298;28;20084;-71
2023/08/28 05:59:08;;;;;;;8.00;3.88;;;;;;;10.67;100.00;98122.25;4174334;28;20076;-71
2023/08/28 06:01:09;;;;;;;6.30;4.45;;;;;;;10.70;100.00;98126.22;4174310;28;20052;-71
2023/08/28 06:03:09;;;;;;;5.88;4.20;;;;;;;10.71;100.00;98119.50;4173193;28;20049;-71
2023/08/28 06:05:09;;;;;;;5.03;4.20;;;;;;;10.72;100.00;98117.53;4174346;28;20550;-71
2023/08/28 06:07:10;;;;;;;4.68;4.05;;;;;;;10.70;100.00;98109.63;4173917;28;20098;-71
2023/08/28 06:09:10;;;;;;;7.63;4.32;;;;;;;10.70;100.00;98098.53;4173820;28;20041;-71
2023/08/28 06:11:10;;;;;;;6.63;4.30;;;;;;;10.74;100.00;98093.00;4173099;28;20119;-71
2023/08/28 06:13:11;;;;;;;4.93;4.40;;;;;;;10.77;100.00;98106.09;4173322;28;20223;-71
2023/08/28 06:15:21;;;;;;;6.32;4.68;;;;;;;10.81;100.00;98095.81;4174169;28;20116;-71
2023/08/28 06:17:23;;;;;;;5.82;5.25;;;;;;;10.83;100.00;98088.72;4174287;28;20106;-71
2023/08/28 06:19:24;;;;;;;6.22;4.85;;;;;;;10.89;100.00;98091.91;4173854;28;20044;-71
2023/08/28 06:21:26;;;;;;;7.03;5.15;;;;;;;10.92;100.00;98089.16;4173951;28;20171;-71
2023/08/28 06:23:27;;;;;;;4.93;4.43;;;;;;;10.98;100.00;98103.41;4173465;28;20135;-71
2023/08/28 06:25:28;;;;;;;7.75;4.00;;;;;;;11.07;100.00;98097.50;4173600;28;20041;-71
2023/08/28 06:27:28;;;;;;;4.85;4.35;;;;;;;11.14;100.00;98100.28;4174163;28;20540;-71
2023/08/28 06:29:28;;;;;;;6.25;4.80;;;;;;;11.21;100.00;98098.34;4174097;28;20041;-71
2023/08/28 06:31:29;;;;;;;6.95;4.82;;;;;;;11.24;100.00;98103.09;4173982;28;20045;-71
2023/08/28 06:33:29;;;;;;;5.13;4.60;;;;;;;11.30;100.00;98097.19;4173166;28;20049;-71
2023/08/28 06:35:30;;;;;;;8.23;4.90;;;;;;;11.36;100.00;98101.16;4172477;28;20045;-71
2023/08/28 06:37:30;;;;;;;7.88;5.45;;;;;;;11.41;100.00;98107.09;4173369;28;20068;-72
2023/08/28 06:39:31;;;;;;;6.28;5.35;;;;;;;11.43;100.00;98099.19;4173696;28;20052;-71
2023/08/28 06:41:31;;;;;;;6.28;5.63;;;;;;;11.45;100.00;98099.59;4173999;28;20367;-71
2023/08/28 06:43:31;;;;;;;5.90;5.30;;;;;;;11.50;100.00;98103.94;4172812;28;20076;-71
2023/08/28 06:45:32;;;;;;;6.15;5.45;;;;;;;11.53;100.00;98103.16;4173884;28;20128;-71
2023/08/28 06:47:32;;;;;;;8.35;5.80;;;;;;;11.57;100.00;98106.72;4173644;28;20084;-71
2023/08/28 06:49:33;;;;;;;6.45;5.32;;;;;;;11.62;100.00;98105.56;4173545;28;20412;-71
2023/08/28 06:51:33;;;;;;;8.00;5.68;;;;;;;11.68;100.00;98110.31;4173276;28;20421;-71
2023/08/28 06:53:33;;;;;;;7.55;5.63;;;;;;;11.70;100.00;98110.72;4172486;28;20064;-71
2023/08/28 06:55:36;;;;;;;6.30;5.32;;;;;;;11.74;100.00;98099.63;4173975;28;20053;-71
2023/08/28 06:57:36;;;;;;;9.20;5.30;;;;;;;11.80;100.00;98111.94;4173111;28;20052;-71
2023/08/28 06:59:36;;;;;;;6.93;5.15;;;;;;;11.86;100.00;98101.25;4173342;28;20045;-71
2023/08/28 07:01:37;;;;;;;7.85;6.28;;;;;;;11.90;100.00;98107.56;4173958;28;20243;-71
2023/08/28 07:03:37;;;;;;;6.45;5.72;;;;;;;11.95;100.00;98105.22;4172475;28;20064;-71
2023/08/28 07:05:37;;;;;;;7.38;5.20;;;;;;;11.96;100.00;98104.00;4172819;28;20084;-71
2023/08/28 07:07:38;;;;;;;6.97;5.68;;;;;;;12.03;100.00;98100.44;4173325;28;20469;-71
2023/08/28 07:09:39;;;;;;;6.93;5.60;;;;;;;12.08;100.00;98100.84;4173385;28;20405;-71
2023/08/28 07:11:39;;;;;;;7.10;5.68;;;;;;;12.14;100.00;98106.78;4173120;28;20447;-71
2023/08/28 07:13:39;;;;;;;7.07;4.93;;;;;;;12.16;100.00;98098.84;4172353;28;20041;-71
2023/08/28 07:15:40;;;;;;;7.20;5.40;;;;;;;12.20;100.00;98093.31;4173561;28;20063;-71
2023/08/28 07:17:40;;;;;;;8.32;6.60;;;;;;;12.24;100.00;98092.09;4172898;28;20350;-71
2023/08/28 07:19:40;;;;;;;6.72;5.38;;;;;;;12.27;100.00;98087.75;4171552;28;20041;-71
2023/08/28 07:21:40;;;;;;;9.73;7.55;;;;;;;12.30;100.00;98092.50;4173441;28;20092;-71
2023/08/28 07:23:42;;;;;;;9.13;5.95;;;;;;;12.29;100.00;98075.06;4172119;28;20037;-71
2023/08/28 07:25:44;;;;;;;9.38;6.18;;;;;;;12.35;100.00;98083.78;4172876;28;20060;-71
2023/08/28 07:27:44;;;;;;;8.33;6.20;;;;;;;12.37;100.00;98068.31;4173210;28;20080;-71
2023/08/28 07:29:44;;;;;;;9.15;6.63;;;;;;;12.41;100.00;98061.94;4173092;28;20822;-71
2023/08/28 07:31:45;;;;;;;11.50;6.30;;;;;;;12.42;100.00;98061.56;4173053;28;20079;-71
2023/08/28 07:33:45;;;;;;;8.63;6.38;;;;;;;12.43;100.00;98063.16;4172306;28;20056;-71
2023/08/28 07:35:46;;;;;;;7.30;5.70;;;;;;;12.46;100.00;98067.09;4159484;28;20057;-71
2023/08/28 07:37:47;;;;;;;8.00;5.95;;;;;;;12.48;100.00;98075.81;4172812;28;20606;-71
2023/08/28 07:39:47;;;;;;;8.43;6.15;;;;;;;12.50;100.00;98077.00;4172971;28;20538;-71
2023/08/28 07:41:47;;;;;;;7.68;6.07;;;;;;;12.51;100.00;98075.03;4172846;28;20156;-71
2023/08/28 07:43:48;;;;;;;7.82;6.60;;;;;;;12.55;100.00;98075.78;4172469;28;20072;-71
2023/08/28 07:45:48;;;;;;;12.10;7.82;;;;;;;12.60;100.00;98084.50;4172689;28;20045;-71
2023/08/28 07:47:48;;;;;;;7.85;6.88;;;;;;;12.60;100.00;98080.94;4171898;28;20103;-71
2023/08/28 07:49:49;;;;;;;8.60;6.90;;;;;;;12.62;100.00;98078.56;4173254;28;20072;-71
2023/08/28 07:51:49;;;;;;;10.98;6.90;;;;;;;12.67;100.00;98082.91;4172773;28;20049;-71
2023/08/28 07:53:49;;;;;;;7.70;5.65;;;;;;;12.68;100.00;98074.19;4172183;28;20126;-71
2023/08/28 07:55:50;;;;;;;9.15;7.10;;;;;;;12.72;100.00;98063.84;4172773;28;20065;-71
2023/08/28 07:57:51;;;;;;;9.02;6.65;;;;;;;12.76;100.00;98061.84;4172330;28;20349;-71
2023/08/28 07:59:52;;;;;;;7.97;6.47;;;;;;;12.80;100.00;98064.59;4172511;28;20041;-71
2023/08/28 08:01:52;;;;;;;8.60;7.03;;;;;;;12.81;100.00;98055.88;4172545;28;20405;-71
2023/08/28 08:03:53;;;;;;;9.60;6.97;;;;;;;12.85;100.00;98062.22;4171630;28;20057;-71
2023/08/28 08:05:54;;;;;;;9.25;6.43;;;;;;;12.87;100.00;98059.81;4171908;28;20045;-71
2023/08/28 08:07:55;;;;;;;6.97;6.00;;;;;;;12.92;100.00;98064.97;4172545;28;20607;-71
2023/08/28 08:09:55;;;;;;;7.95;6.05;;;;;;;12.96;100.00;98076.03;4172913;28;20049;-71
2023/08/28 08:11:56;;;;;;;7.82;6.95;;;;;;;13.00;100.00;98073.28;4172591;28;20045;-71
2023/08/28 08:13:56;;;;;;;8.60;6.95;;;;;;;13.03;100.00;98067.69;4171609;28;20131;-71
2023/08/28 08:15:57;;;;;;;10.68;6.72;;;;;;;13.04;100.00;98068.47;4172803;28;20356;-71
2023/08/28 08:17:57;;;;;;;6.75;6.07;;;;;;;13.07;100.00;98062.09;4172054;28;20040;-71
2023/08/28 08:19:57;;;;;;;7.25;6.47;;;;;;;13.08;100.00;98056.16;4171904;28;20087;-71
2023/08/28 08:21:58;;;;;;;10.80;8.57;;;;;;;13.14;100.00;98059.28;4172761;28;20051;-71
2023/08/28 08:23:58;;;;;;;12.27;9.57;;;;;;;13.19;100.00;98067.22;4172020;28;20131;-71
2023/08/28 08:25:59;;;;;;;12.77;10.85;;;;;;;13.21;100.00;98064.84;4171922;28;20151;-71
2023/08/28 08:27:59;;;;;;;11.23;9.35;;;;;;;13.31;100.00;98079.84;4172332;28;20112;-71
2023/08/28 08:29:59;;;;;;;9.10;8.10;;;;;;;13.39;100.00;98092.50;4172634;28;20057;-71
2023/08/28 08:32:00;;;;;;;7.80;7.00;;;;;;;13.45;100.00;98097.25;4171931;28;20033;-71
2023/08/28 08:34:00;;;;;;;9.77;7.05;;;;;;;13.54;100.00;98107.91;4171123;28;20621;-71
2023/08/28 08:36:01;;;;;;;7.00;5.80;;;;;;;13.63;100.00;98108.25;4172317;28;20424;-71
2023/08/28 08:38:01;;;;;;;7.20;6.43;;;;;;;13.73;100.00;98112.94;4171939;28;20049;-71
2023/08/28 08:40:03;;;;;;;7.78;6.40;;;;;;;13.82;100.00;98101.38;4172119;28;20037;-72
2023/08/28 08:42:03;;;;;;;10.90;7.70;;;;;;;13.89;100.00;98104.09;4172025;28;20037;-72
2023/08/28 08:44:04;;;;;;;8.40;7.45;;;;;;;13.97;100.00;98102.81;4172082;28;20526;-72
2023/08/28 08:46:07;;;;;;;9.80;5.68;;;;;;;13.94;100.00;98100.88;4173017;28;20024;-71
2023/08/28 08:48:08;;;;;;;6.53;5.93;;;;;;;14.02;100.00;98107.97;4172292;28;20028;-71
2023/08/28 08:50:10;;;;;;;8.20;5.80;;;;;;;14.05;100.00;98095.22;4172339;28;20033;-71
2023/08/28 08:52:12;;;;;;;10.15;7.93;;;;;;;14.10;100.00;98091.22;4172231;28;20031;-71
2023/08/28 08:54:18;;;;;;;20.35;13.60;;;;;;;14.12;100.00;98084.03;4171513;28;20089;-71
2023/08/28 08:56:23;;;;;;;7.60;5.78;;;;;;;14.14;100.00;98078.84;4171836;28;20036;-71
2023/08/28 08:58:24;;;;;;;5.72;4.82;;;;;;;14.17;100.00;98086.38;4172190;28;20067;-71
2023/08/28 09:00:25;;;;;;;5.72;5.13;;;;;;;14.19;100.00;98083.19;4171889;28;20075;-71
2023/08/28 09:02:26;;;;;;;6.20;5.32;;;;;;;14.24;100.00;98072.41;4171931;28;20053;-71
2023/08/28 09:04:27;;;;;;;6.55;4.90;;;;;;;14.25;100.00;98075.97;4170424;28;20072;-71
2023/08/28 09:06:29;;;;;;;5.85;5.25;;;;;;;14.18;100.00;98074.03;4172173;28;20076;-71
2023/08/28 09:08:32;;;;;;;5.70;4.90;;;;;;;14.16;100.00;98084.03;4171990;28;20524;-71
2023/08/28 09:10:33;;;;;;;7.10;5.03;;;;;;;14.08;100.00;98080.50;4172227;28;20396;-71
2023/08/28 09:12:33;;;;;;;6.82;5.00;;;;;;;14.01;100.00;98080.56;4171985;28;20045;-71
2023/08/28 09:14:34;;;;;;;7.63;4.65;;;;;;;14.00;100.00;98068.66;4172055;28;20052;-71
2023/08/28 09:16:35;;;;;;;6.40;5.43;;;;;;;14.01;100.00;98070.22;4171957;28;20056;-71
2023/08/28 09:18:35;;;;;;;11.73;5.60;;;;;;;14.01;100.00;98075.78;4175565;28;20045;-71
2023/08/28 09:20:36;;;;;;;8.93;5.97;;;;;;;14.05;100.00;98075.75;4174842;28;20064;-71
2023/08/28 09:22:36;;;;;;;6.60;5.95;;;;;;;14.11;100.00;98081.66;4174537;28;20128;-71
2023/08/28 09:24:36;;;;;;;5.80;4.43;;;;;;;14.16;100.00;98070.91;4175085;28;20168;-71